Time;durP1;ratioP1;P1;durP2;ratioP2;P2;SDS_P1;SDS_P2;PMS_P1;PMS_P2;Temp;Humidity;BMP_temperature;BMP_pressure;BME280_temperature;BME280_humidity;BME280_pressure;Samples;Min_cycle;Max_cycle;Signal;HPM_P1;HPM_P2
2023/01/19 00:01:02;;;;;;;9.80;4.63;;;0.80;99.90;;;;;;5079873;28;20206;-69
2023/01/19 00:03:28;;;;;;;5.40;3.77;;;0.80;99.90;;;;;;5078410;28;20538;-70
2023/01/19 00:05:54;;;;;;;5.37;3.83;;;0.70;99.90;;;;;;5064396;28;20242;-69
2023/01/19 00:08:19;;;;;;;7.27;4.47;;;0.70;99.90;;;;;;5087676;28;20298;-69
2023/01/19 00:10:47;;;;;;;5.43;4.27;;;0.70;99.90;;;;;;5077403;28;20214;-69
2023/01/19 00:13:14;;;;;;;9.97;4.87;;;0.70;99.90;;;;;;5057529;28;20208;-69
2023/01/19 00:15:40;;;;;;;8.03;4.80;;;0.70;99.90;;;;;;5074359;28;20466;-68
2023/01/19 00:18:06;;;;;;;5.17;3.53;;;0.50;99.90;;;;;;5073588;28;20585;-70
2023/01/19 00:20:34;;;;;;;7.23;5.00;;;0.60;99.90;;;;;;5055410;28;20450;-70
2023/01/19 00:23:00;;;;;;;8.43;4.53;;;0.40;99.90;;;;;;5073944;28;20219;-69
2023/01/19 00:25:25;;;;;;;7.57;3.37;;;0.20;99.90;;;;;;5085570;28;20450;-69
2023/01/19 00:27:51;;;;;;;6.60;4.07;;;0.20;99.90;;;;;;5072651;28;20471;-70
2023/01/19 00:30:17;;;;;;;7.63;3.33;;;0.20;99.90;;;;;;5073021;28;20214;-69
2023/01/19 00:32:43;;;;;;;8.00;4.43;;;0.20;99.90;;;;;;5087024;28;20219;-69
2023/01/19 00:35:08;;;;;;;5.20;4.10;;;0.20;99.90;;;;;;5081644;28;20223;-70
2023/01/19 00:37:34;;;;;;;10.03;5.60;;;0.30;99.90;;;;;;5075006;28;20234;-69
2023/01/19 00:40:00;;;;;;;5.80;4.80;;;0.20;99.90;;;;;;5069445;28;20218;-70
2023/01/19 00:42:43;;;;;;;12.20;4.87;;;0.30;99.90;;;;;;5065382;28;20232;-70
2023/01/19 00:45:17;;;;;;;10.30;4.57;;;0.30;99.90;;;;;;5082136;28;20218;-70
2023/01/19 00:47:44;;;;;;;9.87;4.67;;;0.20;99.90;;;;;;5080560;28;20467;-68
2023/01/19 00:50:11;;;;;;;8.30;4.93;;;0.20;99.90;;;;;;5077303;28;20457;-70
2023/01/19 00:52:38;;;;;;;7.87;4.40;;;0.20;99.90;;;;;;5062311;28;20459;-69
2023/01/19 00:55:05;;;;;;;10.90;4.87;;;0.30;99.90;;;;;;5068273;28;20458;-69
2023/01/19 00:57:31;;;;;;;9.53;5.90;;;0.30;99.90;;;;;;5074423;28;20996;-70
2023/01/19 00:59:57;;;;;;;10.87;5.83;;;0.30;99.90;;;;;;5085017;28;20456;-71
2023/01/19 01:02:22;;;;;;;9.00;4.80;;;0.30;99.90;;;;;;5073848;28;20234;-70
2023/01/19 01:04:53;;;;;;;9.30;5.53;;;0.20;99.90;;;;;;5085029;28;20215;-71
2023/01/19 01:07:23;;;;;;;7.17;3.90;;;0.20;99.90;;;;;;5058972;28;20203;-70
2023/01/19 01:09:49;;;;;;;7.10;5.17;;;0.20;99.90;;;;;;5064128;28;20461;-70
2023/01/19 01:12:15;;;;;;;5.80;3.87;;;0.30;99.90;;;;;;5078638;28;20524;-70
2023/01/19 01:14:41;;;;;;;8.77;5.87;;;0.30;99.90;;;;;;5091035;28;20445;-70
2023/01/19 01:17:10;;;;;;;9.07;4.67;;;0.30;99.90;;;;;;5090291;28;20239;-71
2023/01/19 01:19:37;;;;;;;8.57;4.17;;;0.50;99.90;;;;;;5091896;28;20301;-70
2023/01/19 01:22:03;;;;;;;13.80;4.97;;;0.60;99.90;;;;;;5071998;28;20448;-70
2023/01/19 01:24:29;;;;;;;9.20;5.80;;;0.50;99.90;;;;;;5090379;28;20436;-70
2023/01/19 01:26:55;;;;;;;10.10;5.53;;;0.40;99.90;;;;;;5088603;28;20999;-69
2023/01/19 01:29:20;;;;;;;7.80;4.97;;;0.30;99.90;;;;;;5087959;28;20445;-71
2023/01/19 01:31:46;;;;;;;7.13;4.27;;;0.40;99.90;;;;;;5103856;28;20247;-70
2023/01/19 01:34:12;;;;;;;9.10;5.30;;;0.50;99.90;;;;;;5091166;28;20210;-70
2023/01/19 01:36:37;;;;;;;8.50;4.97;;;0.50;99.90;;;;;;5097055;28;20234;-71
2023/01/19 01:39:04;;;;;;;7.37;4.50;;;0.60;99.90;;;;;;5072227;28;20244;-70
2023/01/19 01:41:30;;;;;;;7.93;4.33;;;0.60;99.90;;;;;;5085884;28;20214;-70
2023/01/19 01:43:57;;;;;;;7.07;4.37;;;0.50;99.90;;;;;;5101036;28;20972;-70
2023/01/19 01:46:25;;;;;;;9.33;5.00;;;0.50;99.90;;;;;;5078870;28;20446;-70
2023/01/19 01:48:59;;;;;;;9.50;5.90;;;0.50;99.90;;;;;;5083683;28;20463;-71
2023/01/19 01:51:33;;;;;;;8.00;5.00;;;0.50;99.90;;;;;;5085614;28;20460;-70
2023/01/19 01:54:08;;;;;;;6.10;4.10;;;0.50;99.90;;;;;;5071032;28;20456;-70
2023/01/19 01:56:37;;;;;;;8.50;4.00;;;0.70;99.90;;;;;;5076649;28;20951;-70
2023/01/19 01:59:33;;;;;;;10.33;5.10;;;0.60;99.90;;;;;;5071571;28;20556;-70
2023/01/19 02:04:53;;;;;;;4.77;3.30;;;0.60;99.90;;;;;;5076489;28;20452;-71
2023/01/19 02:13:17;;;;;;;6.53;4.20;;;0.90;99.90;;;;;;5079006;28;20445;-70
2023/01/19 02:15:43;;;;;;;6.93;4.17;;;1.00;99.90;;;;;;5075145;28;20448;-69
2023/01/19 02:18:09;;;;;;;5.23;4.37;;;1.00;99.90;;;;;;5088219;28;20493;-70
2023/01/19 02:20:36;;;;;;;8.73;4.93;;;1.00;99.90;;;;;;5088577;28;20453;-70
2023/01/19 02:23:10;;;;;;;6.87;4.33;;;0.90;99.90;;;;;;5077108;28;20481;-71
2023/01/19 02:25:36;;;;;;;7.20;4.40;;;0.90;99.90;;;;;;5080533;28;20532;-70
2023/01/19 02:28:02;;;;;;;4.90;4.10;;;0.90;99.90;;;;;;5075772;28;20531;-70
2023/01/19 02:30:28;;;;;;;9.90;5.33;;;0.90;99.90;;;;;;5088404;28;20238;-71
2023/01/19 02:32:54;;;;;;;8.97;4.93;;;0.90;99.90;;;;;;5090278;28;20461;-71
2023/01/19 02:35:21;;;;;;;5.77;4.63;;;0.90;99.90;;;;;;5075204;28;20526;-70
2023/01/19 02:37:47;;;;;;;8.77;4.33;;;0.90;99.90;;;;;;5071330;28;20230;-70
2023/01/19 02:40:18;;;;;;;9.93;4.40;;;0.90;99.90;;;;;;5071567;28;20455;-71
2023/01/19 02:42:49;;;;;;;7.60;4.57;;;1.00;99.90;;;;;;5091674;28;20963;-71
2023/01/19 02:45:20;;;;;;;9.23;4.73;;;1.00;99.90;;;;;;5091188;28;20934;-70
2023/01/19 02:47:48;;;;;;;18.97;5.40;;;1.10;99.90;;;;;;5093447;28;20448;-70
2023/01/19 02:50:49;;;;;;;5.10;3.53;;;1.10;99.90;;;;;;5108279;28;20468;-71
2023/01/19 02:53:21;;;;;;;10.07;4.87;;;1.10;99.90;;;;;;5049229;28;20471;-70
2023/01/19 02:56:10;;;;;;;7.50;4.37;;;1.10;99.90;;;;;;5090910;28;20452;-70
2023/01/19 02:58:50;;;;;;;6.57;5.23;;;1.00;99.90;;;;;;5079245;28;20544;-71
2023/01/19 03:01:41;;;;;;;4.97;4.00;;;0.80;99.90;;;;;;5085096;28;20518;-70
2023/01/19 03:04:23;;;;;;;8.23;4.20;;;0.70;99.90;;;;;;5071416;28;20528;-70
2023/01/19 03:07:00;;;;;;;9.67;5.63;;;0.80;99.90;;;;;;5075515;28;20490;-69
2023/01/19 03:09:41;;;;;;;8.00;4.90;;;0.60;99.90;;;;;;5093009;28;20445;-70
2023/01/19 03:12:22;;;;;;;9.40;4.97;;;0.60;99.90;;;;;;5091385;28;20456;-69
2023/01/19 03:14:48;;;;;;;6.83;4.83;;;0.50;99.90;;;;;;5092085;28;20451;-69
2023/01/19 03:17:17;;;;;;;9.50;5.40;;;0.60;99.90;;;;;;5074296;28;20555;-69
2023/01/19 03:19:46;;;;;;;6.50;4.53;;;0.70;99.90;;;;;;5084878;28;20445;-70
2023/01/19 03:22:21;;;;;;;8.97;5.17;;;0.80;99.90;;;;;;5074148;28;20515;-70
2023/01/19 03:24:48;;;;;;;6.83;4.00;;;0.70;99.90;;;;;;5075439;28;20862;-70
2023/01/19 03:27:19;;;;;;;6.47;4.47;;;0.50;99.90;;;;;;5074779;28;20463;-70
2023/01/19 03:30:00;;;;;;;9.47;5.20;;;0.60;99.90;;;;;;5074357;28;20459;-70
2023/01/19 03:32:36;;;;;;;12.10;5.90;;;0.60;99.90;;;;;;5091302;28;20611;-69
2023/01/19 03:35:07;;;;;;;10.17;5.70;;;0.50;99.90;;;;;;5092734;28;20568;-70
2023/01/19 03:37:37;;;;;;;5.60;3.83;;;0.30;99.90;;;;;;5070544;28;20522;-70
2023/01/19 03:40:03;;;;;;;6.10;4.47;;;0.30;99.90;;;;;;5072947;28;20452;-70
2023/01/19 03:42:29;;;;;;;6.63;4.70;;;0.20;99.90;;;;;;5072376;27;20444;-70
2023/01/19 03:44:58;;;;;;;5.73;3.80;;;0.30;99.90;;;;;;5078972;28;21037;-70
2023/01/19 03:47:24;;;;;;;4.37;3.87;;;0.30;99.90;;;;;;5079024;28;20206;-70
2023/01/19 03:49:52;;;;;;;7.33;4.63;;;0.20;99.90;;;;;;5106017;27;20938;-70
2023/01/19 03:52:24;;;;;;;6.13;4.57;;;0.30;99.90;;;;;;5083713;28;21032;-70
2023/01/19 03:54:50;;;;;;;5.80;4.13;;;0.40;99.90;;;;;;5049952;28;20454;-70
2023/01/19 03:57:16;;;;;;;8.17;5.07;;;0.30;99.90;;;;;;5082549;28;20541;-70
2023/01/19 03:59:41;;;;;;;5.87;4.13;;;0.30;99.90;;;;;;5090874;28;20224;-70
2023/01/19 04:02:07;;;;;;;11.67;5.43;;;0.20;99.90;;;;;;5057189;28;20226;-71
2023/01/19 04:04:33;;;;;;;6.37;4.20;;;0.20;99.90;;;;;;5079431;28;20238;-70
2023/01/19 04:06:58;;;;;;;8.20;4.80;;;0.10;99.90;;;;;;5053740;28;20227;-70
2023/01/19 04:09:24;;;;;;;11.27;5.07;;;0.10;99.90;;;;;;5073630;28;20215;-70
2023/01/19 04:11:50;;;;;;;6.97;4.23;;;0.10;99.90;;;;;;5082205;28;20246;-70
2023/01/19 04:14:16;;;;;;;9.30;5.53;;;0.10;99.90;;;;;;5055657;28;20502;-70
2023/01/19 04:16:41;;;;;;;8.93;5.43;;;0.10;99.90;;;;;;5078309;28;20298;-68
2023/01/19 04:19:07;;;;;;;6.67;4.30;;;0.10;99.90;;;;;;5093588;28;20295;-70
2023/01/19 04:21:33;;;;;;;5.90;4.33;;;0.00;99.90;;;;;;5084966;28;20226;-70
2023/01/19 04:23:58;;;;;;;6.80;5.30;;;0.20;99.90;;;;;;5079452;28;20219;-70
2023/01/19 04:26:24;;;;;;;7.63;4.80;;;0.30;99.90;;;;;;5062492;28;20214;-70
2023/01/19 04:28:49;;;;;;;8.90;4.80;;;0.30;99.90;;;;;;5082083;28;20218;-69
2023/01/19 04:31:15;;;;;;;12.53;5.50;;;0.40;99.90;;;;;;5069081;28;20306;-70
2023/01/19 04:33:41;;;;;;;6.90;4.20;;;0.40;99.90;;;;;;5094648;28;20252;-69
2023/01/19 04:36:07;;;;;;;8.23;5.50;;;0.50;99.90;;;;;;5088239;28;20215;-70
2023/01/19 04:38:33;;;;;;;7.13;4.40;;;0.60;99.90;;;;;;5091172;28;20694;-70
2023/01/19 04:40:58;;;;;;;7.83;4.40;;;0.70;99.90;;;;;;5069903;28;20511;-70
2023/01/19 04:43:24;;;;;;;5.97;4.23;;;0.70;99.90;;;;;;5090692;28;20293;-70
2023/01/19 04:45:50;;;;;;;7.83;4.20;;;0.50;99.90;;;;;;5090150;28;20586;-70
2023/01/19 04:48:17;;;;;;;7.67;4.90;;;0.40;99.90;;;;;;5088406;28;20267;-70
2023/01/19 04:50:43;;;;;;;9.90;5.50;;;0.50;99.90;;;;;;5100555;28;21010;-70
2023/01/19 04:53:09;;;;;;;5.97;4.40;;;0.60;99.90;;;;;;5084887;28;20502;-70
2023/01/19 04:55:37;;;;;;;11.30;5.20;;;0.60;99.90;;;;;;5075887;28;20509;-69
2023/01/19 04:58:04;;;;;;;9.57;5.10;;;0.60;99.90;;;;;;5071691;28;20603;-68
2023/01/19 05:00:30;;;;;;;10.17;5.10;;;0.70;99.90;;;;;;5088980;28;20487;-68
2023/01/19 05:02:56;;;;;;;12.93;4.43;;;0.80;99.90;;;;;;5076572;28;20472;-68
2023/01/19 05:05:22;;;;;;;9.03;5.20;;;0.90;99.90;;;;;;5083519;28;20500;-68
2023/01/19 05:07:48;;;;;;;9.60;5.03;;;0.90;99.90;;;;;;5073697;28;20210;-68
2023/01/19 05:10:13;;;;;;;5.00;3.90;;;1.00;99.90;;;;;;5088842;28;20528;-69
2023/01/19 05:12:39;;;;;;;4.60;3.83;;;1.00;99.90;;;;;;5090021;28;20242;-68
2023/01/19 05:15:06;;;;;;;6.57;3.97;;;1.10;99.90;;;;;;5072130;28;20305;-69
2023/01/19 05:17:33;;;;;;;8.97;5.97;;;1.10;99.90;;;;;;5089108;28;20242;-69
2023/01/19 05:19:58;;;;;;;7.70;4.90;;;1.20;99.90;;;;;;5082132;28;20453;-69
2023/01/19 05:22:24;;;;;;;11.67;5.27;;;1.10;99.90;;;;;;5090179;28;20463;-68
2023/01/19 05:24:50;;;;;;;10.30;4.63;;;1.10;99.90;;;;;;5072831;28;20657;-69
2023/01/19 05:27:15;;;;;;;8.10;4.93;;;1.20;99.90;;;;;;5090396;28;20540;-69
2023/01/19 05:29:41;;;;;;;9.27;5.03;;;1.20;99.90;;;;;;5099676;28;20298;-70
2023/01/19 05:32:07;;;;;;;5.67;4.00;;;1.20;99.90;;;;;;5102547;28;20212;-70
2023/01/19 05:34:33;;;;;;;6.73;4.10;;;1.30;99.90;;;;;;5088433;28;20249;-69
2023/01/19 05:36:59;;;;;;;6.53;5.27;;;1.30;99.90;;;;;;5073535;28;20241;-70
2023/01/19 05:39:25;;;;;;;7.10;3.90;;;1.30;99.90;;;;;;5078661;28;20452;-70
2023/01/19 05:41:51;;;;;;;7.90;4.33;;;1.30;99.90;;;;;;5069990;28;20215;-70
2023/01/19 05:44:17;;;;;;;8.60;4.80;;;1.30;99.90;;;;;;5078912;28;20475;-70
2023/01/19 05:46:42;;;;;;;9.27;4.37;;;1.30;99.90;;;;;;5087674;28;20506;-67
2023/01/19 05:49:08;;;;;;;6.20;4.47;;;1.40;99.90;;;;;;5089769;28;20267;-70
2023/01/19 05:51:36;;;;;;;7.47;4.67;;;1.40;99.90;;;;;;5083328;28;20286;-68
2023/01/19 05:54:07;;;;;;;10.90;4.77;;;1.40;99.90;;;;;;5057433;28;20490;-70
2023/01/19 05:56:34;;;;;;;10.03;5.30;;;1.40;99.90;;;;;;5066757;28;20498;-69
2023/01/19 05:59:00;;;;;;;6.63;4.73;;;1.40;99.90;;;;;;5097560;28;20455;-70
2023/01/19 06:01:26;;;;;;;11.37;4.90;;;1.30;99.90;;;;;;5071786;28;20449;-70
2023/01/19 06:03:52;;;;;;;12.73;4.87;;;1.30;99.90;;;;;;5067321;28;20219;-69
2023/01/19 06:06:17;;;;;;;5.70;4.87;;;1.30;99.90;;;;;;5075754;28;20469;-70
2023/01/19 06:08:44;;;;;;;7.90;5.17;;;1.30;99.90;;;;;;5087451;28;20254;-70
2023/01/19 06:11:09;;;;;;;8.50;5.07;;;1.30;99.90;;;;;;5069852;28;20249;-70
2023/01/19 06:13:35;;;;;;;6.90;4.10;;;1.30;99.90;;;;;;5053264;28;20480;-70
2023/01/19 06:16:02;;;;;;;8.80;4.27;;;1.30;99.90;;;;;;5080054;28;20685;-70
2023/01/19 06:18:28;;;;;;;6.43;4.30;;;1.40;99.90;;;;;;5057399;28;20246;-69
2023/01/19 06:20:57;;;;;;;7.50;4.30;;;1.40;99.90;;;;;;5070748;28;20465;-70
2023/01/19 06:23:28;;;;;;;9.23;5.47;;;1.40;99.90;;;;;;5072271;28;20468;-70
2023/01/19 06:25:54;;;;;;;5.90;4.57;;;1.40;99.90;;;;;;5073768;28;20457;-70
2023/01/19 06:28:20;;;;;;;9.93;5.53;;;1.20;99.90;;;;;;5057616;28;20556;-70
2023/01/19 06:30:50;;;;;;;9.87;5.47;;;1.10;99.90;;;;;;5068007;28;20301;-70
2023/01/19 06:33:17;;;;;;;8.43;4.57;;;1.10;99.90;;;;;;5089915;28;20222;-70
2023/01/19 06:35:47;;;;;;;10.30;6.20;;;1.20;99.90;;;;;;5072562;28;20441;-68
2023/01/19 06:38:13;;;;;;;7.90;5.20;;;1.20;99.90;;;;;;5071509;28;20522;-71
2023/01/19 06:40:39;;;;;;;8.53;5.13;;;1.20;99.90;;;;;;5084716;28;21013;-70
2023/01/19 06:43:06;;;;;;;10.20;5.40;;;1.20;99.90;;;;;;5075163;28;20457;-70
2023/01/19 06:45:31;;;;;;;10.60;5.20;;;1.20;99.90;;;;;;5074359;28;20493;-69
2023/01/19 06:47:57;;;;;;;11.73;6.67;;;1.20;99.90;;;;;;5091121;28;20547;-69
2023/01/19 06:50:23;;;;;;;7.77;4.93;;;1.20;99.90;;;;;;5095412;28;20300;-70
2023/01/19 06:52:50;;;;;;;11.80;6.53;;;1.20;99.90;;;;;;5073983;28;20634;-69
2023/01/19 06:55:16;;;;;;;11.80;6.50;;;1.30;99.90;;;;;;5071429;28;20215;-69
2023/01/19 06:57:43;;;;;;;13.20;6.47;;;1.40;99.90;;;;;;5084769;28;20468;-67
2023/01/19 07:00:11;;;;;;;9.60;6.37;;;1.30;99.90;;;;;;5058165;28;20542;-70
2023/01/19 07:02:41;;;;;;;15.17;7.33;;;1.40;99.90;;;;;;5070575;28;20457;-69
2023/01/19 07:05:08;;;;;;;10.83;6.30;;;1.30;99.90;;;;;;5097004;28;20489;-70
2023/01/19 07:07:34;;;;;;;19.70;10.67;;;1.20;99.90;;;;;;5087452;28;20456;-69
2023/01/19 07:09:59;;;;;;;37.07;21.67;;;1.30;99.90;;;;;;5071226;28;21045;-70
2023/01/19 07:12:25;;;;;;;21.83;16.50;;;1.20;99.90;;;;;;5092728;28;20468;-69
2023/01/19 07:14:51;;;;;;;51.37;22.80;;;1.10;99.90;;;;;;5090680;28;20215;-70
2023/01/19 07:17:18;;;;;;;68.97;31.27;;;1.10;99.90;;;;;;5067265;28;20214;-69
2023/01/19 07:19:44;;;;;;;72.93;33.47;;;1.30;99.90;;;;;;5090860;28;20451;-69
2023/01/19 07:22:09;;;;;;;53.10;27.03;;;1.30;99.90;;;;;;5078893;28;20449;-70
2023/01/19 07:24:36;;;;;;;39.20;19.63;;;1.20;99.90;;;;;;5086806;28;20445;-69
2023/01/19 07:27:03;;;;;;;25.43;13.00;;;1.20;99.90;;;;;;5088893;28;20710;-70
2023/01/19 07:29:29;;;;;;;32.77;13.20;;;1.20;99.90;;;;;;5089564;28;20449;-70
2023/01/19 07:31:55;;;;;;;17.10;10.73;;;1.30;99.90;;;;;;5077432;28;20497;-69
2023/01/19 07:34:20;;;;;;;15.27;9.83;;;1.10;99.90;;;;;;5068215;28;20264;-70
2023/01/19 07:36:46;;;;;;;21.43;13.00;;;1.00;99.90;;;;;;5084509;28;20448;-68
2023/01/19 07:39:13;;;;;;;17.97;11.47;;;1.00;99.90;;;;;;5092662;28;20706;-70
2023/01/19 07:41:38;;;;;;;16.13;9.53;;;1.10;99.90;;;;;;5080425;28;20451;-69
2023/01/19 07:44:06;;;;;;;15.63;8.20;;;1.10;99.90;;;;;;5063604;28;20449;-70
2023/01/19 07:46:31;;;;;;;15.23;7.67;;;1.20;99.90;;;;;;5061514;28;20430;-70
2023/01/19 07:48:57;;;;;;;10.23;7.00;;;1.20;99.90;;;;;;5081607;28;20575;-69
2023/01/19 07:51:22;;;;;;;12.03;6.73;;;1.10;99.90;;;;;;5081236;28;20223;-69
2023/01/19 07:53:51;;;;;;;9.13;5.80;;;1.10;99.90;;;;;;5078395;28;20215;-70
2023/01/19 07:56:17;;;;;;;10.30;5.17;;;1.20;99.90;;;;;;5064704;28;20224;-71
2023/01/19 07:58:42;;;;;;;6.93;4.77;;;1.30;99.90;;;;;;5084465;28;20458;-69
2023/01/19 08:01:10;;;;;;;5.23;4.50;;;1.30;99.90;;;;;;5106407;28;20222;-70
2023/01/19 08:03:36;;;;;;;14.07;6.73;;;1.30;99.90;;;;;;5091665;28;20230;-69
2023/01/19 08:06:03;;;;;;;11.40;6.20;;;1.20;99.90;;;;;;5089166;28;20483;-70
2023/01/19 08:08:31;;;;;;;18.23;6.60;;;1.20;99.90;;;;;;5069082;28;20503;-69
2023/01/19 08:10:57;;;;;;;10.60;5.50;;;1.20;99.90;;;;;;5066523;28;20486;-68
2023/01/19 08:13:23;;;;;;;8.10;5.27;;;1.30;99.90;;;;;;5085832;28;20527;-69
2023/01/19 08:15:53;;;;;;;8.00;4.40;;;1.40;99.90;;;;;;5051709;28;20976;-70
2023/01/19 08:18:19;;;;;;;5.37;3.60;;;1.40;99.90;;;;;;5062802;28;20552;-70
2023/01/19 08:20:45;;;;;;;7.00;4.47;;;1.50;99.90;;;;;;5069134;28;20810;-69
2023/01/19 08:23:11;;;;;;;6.77;4.83;;;1.50;99.90;;;;;;5069897;28;20453;-70
2023/01/19 08:25:44;;;;;;;7.13;4.60;;;1.40;99.90;;;;;;5052930;28;20453;-70
2023/01/19 08:28:11;;;;;;;10.83;5.83;;;1.40;99.90;;;;;;5067744;28;20456;-70
2023/01/19 08:30:38;;;;;;;8.33;4.43;;;1.40;99.90;;;;;;5049070;28;20445;-70
2023/01/19 08:33:07;;;;;;;6.80;4.80;;;1.30;99.90;;;;;;5068590;28;20554;-70
2023/01/19 08:35:35;;;;;;;7.40;4.47;;;1.30;99.90;;;;;;5080953;28;20455;-71
2023/01/19 08:38:02;;;;;;;9.30;4.90;;;1.30;99.90;;;;;;5059752;28;20541;-70
2023/01/19 08:40:28;;;;;;;7.80;5.27;;;1.40;99.90;;;;;;5077331;28;20441;-70
2023/01/19 08:43:04;;;;;;;7.00;5.17;;;1.40;99.90;;;;;;5076745;28;20467;-70
2023/01/19 08:45:30;;;;;;;9.50;5.83;;;1.40;99.90;;;;;;5090278;28;20444;-70
2023/01/19 08:48:00;;;;;;;9.10;4.90;;;1.30;99.90;;;;;;5067968;28;20510;-69
2023/01/19 08:50:27;;;;;;;8.97;5.07;;;1.30;99.90;;;;;;5079626;28;20464;-70
2023/01/19 08:53:01;;;;;;;7.63;4.90;;;1.30;99.90;;;;;;5074059;28;20462;-70
2023/01/19 08:55:28;;;;;;;10.10;5.33;;;1.40;99.90;;;;;;5064115;28;20465;-70
2023/01/19 08:58:02;;;;;;;5.87;4.40;;;1.40;99.90;;;;;;5074207;28;20460;-70
2023/01/19 09:00:30;;;;;;;7.87;5.87;;;1.40;99.90;;;;;;5056882;28;20540;-70
2023/01/19 09:02:56;;;;;;;16.97;9.00;;;1.50;99.90;;;;;;5066844;28;20861;-69
2023/01/19 09:05:22;;;;;;;14.50;8.67;;;1.60;99.90;;;;;;5056102;28;20458;-69
2023/01/19 09:07:50;;;;;;;15.60;7.83;;;1.60;99.90;;;;;;5063745;28;20834;-70
2023/01/19 09:10:17;;;;;;;10.67;6.40;;;1.70;99.90;;;;;;5080536;28;20454;-69
2023/01/19 09:12:43;;;;;;;18.97;9.80;;;1.70;99.90;;;;;;5087905;28;20528;-70
2023/01/19 09:15:12;;;;;;;15.70;8.47;;;1.70;99.90;;;;;;5068615;28;20453;-69
2023/01/19 09:17:39;;;;;;;9.30;5.70;;;1.80;99.90;;;;;;5100078;28;20462;-70
2023/01/19 09:20:06;;;;;;;9.67;5.60;;;1.80;99.90;;;;;;5086139;28;20453;-71
2023/01/19 09:22:32;;;;;;;6.33;5.20;;;1.80;99.90;;;;;;5071072;28;20468;-70
2023/01/19 09:24:58;;;;;;;13.27;6.10;;;2.00;99.90;;;;;;5088766;28;20502;-70
2023/01/19 09:27:24;;;;;;;9.00;5.10;;;2.10;99.90;;;;;;5075986;28;20449;-70
2023/01/19 09:29:52;;;;;;;8.80;5.33;;;2.10;99.90;;;;;;5082570;28;20459;-69
2023/01/19 09:32:19;;;;;;;14.53;9.47;;;2.20;99.90;;;;;;5087946;28;20227;-70
2023/01/19 09:34:45;;;;;;;36.27;18.87;;;2.20;99.90;;;;;;5074226;28;20476;-71
2023/01/19 09:37:11;;;;;;;54.77;25.30;;;2.20;99.90;;;;;;5069360;28;20478;-70
2023/01/19 09:39:36;;;;;;;40.90;25.70;;;2.20;99.90;;;;;;5072039;28;20448;-70
2023/01/19 09:42:29;;;;;;;46.70;26.37;;;2.10;99.90;;;;;;5078492;28;20238;-70
2023/01/19 09:44:55;;;;;;;32.70;17.97;;;2.10;99.90;;;;;;5093919;28;20219;-70
2023/01/19 09:47:29;;;;;;;25.40;14.90;;;2.00;99.90;;;;;;5082444;28;20544;-70
2023/01/19 09:50:00;;;;;;;15.20;7.60;;;2.00;99.90;;;;;;5087338;28;20217;-71
2023/01/19 09:52:26;;;;;;;8.87;6.60;;;1.90;99.90;;;;;;5086417;28;20527;-69
2023/01/19 09:54:55;;;;;;;12.20;5.70;;;2.00;99.90;;;;;;5084369;28;20452;-70
2023/01/19 09:57:22;;;;;;;5.83;4.07;;;1.90;99.90;;;;;;5077623;28;20551;-70
2023/01/19 09:59:50;;;;;;;5.37;4.70;;;1.90;99.90;;;;;;5081287;28;20451;-68
2023/01/19 10:02:26;;;;;;;11.83;7.10;;;1.90;99.90;;;;;;5088297;28;20558;-70
2023/01/19 10:04:59;;;;;;;17.30;10.30;;;2.00;99.90;;;;;;5080482;28;20454;-70
2023/01/19 10:07:36;;;;;;;39.47;18.33;;;2.00;99.90;;;;;;5061723;28;21014;-71
2023/01/19 10:10:23;;;;;;;40.53;18.70;;;2.10;99.90;;;;;;5076941;28;20456;-70
2023/01/19 10:13:26;;;;;;;41.50;20.70;;;2.10;99.90;;;;;;5065032;28;20500;-70
2023/01/19 10:16:20;;;;;;;18.17;11.33;;;2.10;99.90;;;;;;5078325;28;20514;-70
2023/01/19 10:18:52;;;;;;;5.57;4.17;;;2.10;99.90;;;;;;5073647;28;20469;-70
2023/01/19 10:21:23;;;;;;;5.27;4.17;;;2.10;99.90;;;;;;5085558;28;20535;-71
2023/01/19 10:24:22;;;;;;;8.70;4.47;;;2.10;99.90;;;;;;5065936;28;20984;-70
2023/01/19 10:26:51;;;;;;;7.70;4.40;;;2.20;99.90;;;;;;5057763;28;20441;-70
2023/01/19 10:29:36;;;;;;;10.37;4.57;;;2.10;99.90;;;;;;5070312;28;20537;-71
2023/01/19 10:32:16;;;;;;;6.43;4.17;;;2.20;99.90;;;;;;5071228;28;20491;-70
2023/01/19 10:34:42;;;;;;;4.00;3.00;;;2.20;99.90;;;;;;5087809;28;20453;-68
2023/01/19 10:37:16;;;;;;;6.67;4.47;;;2.20;99.90;;;;;;5062264;28;20469;-71
2023/01/19 10:40:12;;;;;;;5.57;4.40;;;2.20;99.90;;;;;;5081598;28;20443;-70
2023/01/19 10:42:40;;;;;;;4.10;3.17;;;2.20;99.90;;;;;;5079023;28;20508;-71
2023/01/19 10:45:30;;;;;;;4.73;3.43;;;2.20;99.90;;;;;;5079188;28;20486;-70
2023/01/19 10:48:05;;;;;;;6.30;4.30;;;2.20;99.90;;;;;;5067143;28;20452;-71
2023/01/19 10:50:38;;;;;;;6.77;4.33;;;2.20;99.90;;;;;;5086517;28;20582;-71
2023/01/19 10:53:05;;;;;;;6.80;3.70;;;2.20;99.90;;;;;;5092744;28;20531;-70
2023/01/19 10:55:39;;;;;;;3.60;2.90;;;2.20;99.90;;;;;;5102692;28;20442;-70
2023/01/19 10:58:23;;;;;;;5.00;3.30;;;2.20;99.90;;;;;;5088044;28;20465;-71
2023/01/19 11:00:49;;;;;;;7.33;3.77;;;2.20;99.90;;;;;;5073749;28;20456;-71
2023/01/19 11:03:26;;;;;;;5.03;3.30;;;2.20;99.90;;;;;;5081658;28;20459;-70
2023/01/19 11:05:52;;;;;;;5.33;3.10;;;2.20;99.90;;;;;;5092576;28;20222;-70
2023/01/19 11:08:27;;;;;;;6.17;3.80;;;2.20;99.90;;;;;;5080336;28;20457;-69
2023/01/19 11:11:03;;;;;;;4.03;3.30;;;2.20;99.90;;;;;;5102441;28;20682;-71
2023/01/19 11:13:30;;;;;;;5.23;3.47;;;2.30;99.90;;;;;;5081266;28;20448;-70
2023/01/19 11:16:03;;;;;;;5.30;3.80;;;2.30;99.90;;;;;;5089915;28;20470;-71
2023/01/19 11:18:31;;;;;;;4.90;3.10;;;2.30;99.90;;;;;;5054064;28;20453;-71
2023/01/19 11:21:01;;;;;;;4.67;2.67;;;2.30;99.90;;;;;;5087529;28;20531;-70
2023/01/19 11:23:32;;;;;;;6.17;3.40;;;2.40;99.90;;;;;;5077138;28;20461;-71
2023/01/19 11:26:00;;;;;;;4.70;3.50;;;2.40;99.90;;;;;;5072536;28;20531;-71
2023/01/19 11:28:46;;;;;;;3.70;2.43;;;2.50;99.90;;;;;;5078493;27;20468;-71
2023/01/19 11:31:16;;;;;;;3.93;2.40;;;2.50;99.90;;;;;;5088768;28;20472;-70
2023/01/19 11:33:49;;;;;;;4.50;2.73;;;2.40;99.90;;;;;;5061325;28;20510;-70
2023/01/19 11:36:15;;;;;;;4.73;3.03;;;2.50;99.90;;;;;;5084323;27;20463;-70
2023/01/19 11:38:45;;;;;;;3.30;2.60;;;2.50;99.90;;;;;;5088021;28;20465;-69
2023/01/19 11:41:20;;;;;;;3.10;2.50;;;2.50;99.90;;;;;;5046091;28;20232;-71
2023/01/19 11:43:50;;;;;;;4.27;3.13;;;2.50;99.90;;;;;;5091466;28;20501;-70
2023/01/19 11:46:16;;;;;;;3.17;2.80;;;2.50;99.90;;;;;;5080236;28;20460;-70
2023/01/19 11:48:51;;;;;;;3.30;2.17;;;2.60;99.90;;;;;;5082944;28;20448;-71
2023/01/19 11:51:20;;;;;;;7.23;3.40;;;2.50;99.90;;;;;;5090352;28;20464;-70
2023/01/19 11:53:51;;;;;;;5.70;4.77;;;2.50;99.90;;;;;;5072335;28;20478;-71
2023/01/19 11:56:22;;;;;;;5.53;3.30;;;2.60;99.90;;;;;;5101170;28;20513;-71
2023/01/19 11:58:48;;;;;;;3.50;2.70;;;2.50;99.90;;;;;;5073333;28;20980;-69
2023/01/19 12:01:20;;;;;;;4.07;2.87;;;2.50;99.90;;;;;;5081789;28;20552;-70
2023/01/19 12:03:51;;;;;;;3.60;2.07;;;2.50;99.90;;;;;;5085832;28;20452;-71
2023/01/19 12:06:46;;;;;;;5.67;3.40;;;2.50;99.90;;;;;;5087631;28;20459;-71
2023/01/19 12:09:16;;;;;;;5.73;2.87;;;2.60;99.90;;;;;;5083948;28;20523;-70
2023/01/19 12:11:54;;;;;;;10.23;2.90;;;2.50;99.90;;;;;;5069273;28;20452;-71
2023/01/19 12:14:28;;;;;;;4.07;2.77;;;2.50;99.90;;;;;;5076596;28;20461;-71
2023/01/19 12:16:58;;;;;;;3.20;2.43;;;2.60;99.90;;;;;;5063576;28;20513;-71
2023/01/19 12:19:31;;;;;;;2.90;2.10;;;2.60;99.90;;;;;;5068351;28;20503;-71
2023/01/19 12:21:57;;;;;;;3.47;2.37;;;2.60;99.90;;;;;;5046072;28;20496;-72
2023/01/19 12:24:33;;;;;;;5.13;2.77;;;2.60;99.90;;;;;;5067280;28;20449;-71
2023/01/19 12:27:04;;;;;;;3.23;2.23;;;2.70;99.90;;;;;;5073593;28;21295;-71
2023/01/19 12:29:34;;;;;;;2.97;2.40;;;2.70;99.90;;;;;;5051340;28;20465;-72
2023/01/19 12:32:12;;;;;;;2.43;2.23;;;2.70;99.90;;;;;;5084416;28;20464;-71
2023/01/19 12:34:41;;;;;;;5.30;3.87;;;2.70;99.90;;;;;;5061471;28;20475;-71
2023/01/19 12:37:32;;;;;;;5.70;3.77;;;2.70;99.90;;;;;;5066262;28;20469;-71
2023/01/19 12:40:01;;;;;;;4.43;3.30;;;2.80;99.90;;;;;;5064487;28;20457;-71
2023/01/19 12:42:28;;;;;;;7.53;4.37;;;2.80;99.90;;;;;;5067727;28;20520;-71
2023/01/19 12:45:11;;;;;;;4.33;3.57;;;2.80;99.90;;;;;;5084043;28;20832;-71
2023/01/19 12:47:36;;;;;;;3.27;2.97;;;2.90;99.90;;;;;;5071872;28;20472;-71
2023/01/19 12:50:19;;;;;;;3.40;2.60;;;2.90;99.90;;;;;;5082258;28;20440;-71
2023/01/19 12:52:56;;;;;;;5.23;3.07;;;2.90;99.90;;;;;;5087623;28;20230;-71
2023/01/19 12:55:29;;;;;;;5.63;3.20;;;2.90;99.90;;;;;;5068706;28;20452;-71
2023/01/19 12:58:17;;;;;;;7.27;2.97;;;2.90;99.90;;;;;;5082838;28;20469;-69
2023/01/19 13:00:46;;;;;;;7.63;2.50;;;3.00;99.90;;;;;;5060451;28;20460;-69
2023/01/19 13:03:17;;;;;;;7.70;3.20;;;3.10;99.90;;;;;;5101347;27;20440;-69
2023/01/19 13:05:43;;;;;;;5.60;3.37;;;3.10;99.90;;;;;;5101685;28;20567;-69
2023/01/19 13:08:08;;;;;;;5.43;3.37;;;3.10;99.90;;;;;;5072919;28;20536;-70
2023/01/19 13:10:59;;;;;;;5.73;3.30;;;3.10;99.90;;;;;;5089287;28;20272;-71
2023/01/19 13:13:26;;;;;;;3.90;3.07;;;3.20;99.90;;;;;;5088892;28;20222;-70